Accueil
METAR-TAF:

METAR-TAF

Aéroports :

Aéroport Rouen Vallée de Seine

Rouen, France

latitude: 49-23N, longitude: 001-11E, altitude: 157 m

Observation

Le bulletin a été fait il y a 42 minutes, à 08:00 UTC
Vent 11 kt de nord
Température 7°C
Humidité 93%
Pression 1042 hPa
Visibilité 10 km ou plus
Ciel couvert à une hauteur de 1000 ft

METAR: LFOP 050800Z AUTO 36011KT 9999 OVC010 07/06 Q1042 TEMPO 28005KT 2000 DZ BR BECMG SCT020

Heure: 09:42 (08:42 UTC)

Prévision

Le bulletin a été fait il y a 47 minutes, à 07:55 UTC
Prévision valable du 05 à 07 UTC au 06 à 06 UTC
Vent 12 kt de nord
Visibilité 10 km ou plus
Nuages épars à une hauteur de 2000 ft
Temporairement
du 05 à 07 UTC au 05 à 09 UTC
Nuages fragmentés à une hauteur de 700 ft
Nuages fragmentés à une hauteur de 1100 ft

TAF: LFOP 050755Z 0507/0606 36012KT 9999 SCT020 TEMPO 0507/0509 BKN007 BKN011

Observations et prévisions météorologiques de plus de 4000 aéroports (messages METAR et TAF).

Les stations disponibles sont représentées par des disques jaunes et rouges sur la carte.

Passer la souris dessus pour voir le nom de la station.

Cliquer dessus pour voir les observations et prévisions météorologiques.

Pour changer de carte: cliquez sur les boutons verts avec une croix noire pour zoomer, sur le bouton vert avec un tiret pour effectuer un zoom arrière, ou sur les flèches vertes pour les cartes adjacentes.


METAR-TAF: